Terminal Aerodrome Forecast
Issued by NWS Charleston, WV

Current Version | Previous Version | Graphics & Text | Print | Product List | Glossary On
Versions: 1 2 3 4 5 6 7 8 9 10 11 12 13 14 15 16 17 18 19 20 21 22 23 24 25
803
FTUS41 KRLX 172320
TAFCRW
TAF
KCRW 172320Z 1800/1824 22012G22KT P6SM SCT025 BKN035
     FM180200 25008G17KT P6SM BKN012 OVC020
     FM181300 27011KT P6SM OVC025=

USA.gov is the U.S. government's official web portal to all federal, state and local government web resources and services.